Terminal Aerodrome Forecast
Issued by NWS

Home | Current Version | Previous Version | Text Only | Print | Product List | Glossary On
Versions: 1 2 3 4 5 6 7 8 9 10 11 12 13 14 15 16 17 18
000
FTUS45 KTFX 222300
TAFLWT
TAF
KLWT 222337Z 2300/2324 VRB06KT P6SM -SHRA OVC015
     FM231200 01014KT 4SM RA BR OVC006=

USA.gov is the U.S. government's official web portal to all federal, state and local government web resources and services.